Go Pro

Invesco S&P International Developed Momentum ETF (IDMO) Institutional Ownership

$63.40 +1.11 (+1.78%)
As of 04:10 PM Eastern

Institutional Ownership Changes (13F Filings) for Invesco S&P International Developed Momentum ETF (NYSEARCA:IDMO)

Number of
Institutional Buyers
(last 12 months)
216
Total
Institutional Inflows
(last 12 months)
$1.06B
Number of
Institutional Sellers
(last 12 months)
34
Total
Institutional Outflows
(last 12 months)
$89.78M
Get IDMO Insider Trade Alerts

Want to know when executives and insiders are buying or selling Invesco S&P International Developed Momentum ETF stock? Sign up for InsiderTrades.com's daily newsletter to get the latest insider transactions delivered to your inbox daily.

SMS is currently available in Australia, Belgium, Canada, France, Germany, Ireland, Italy, New Zealand, the Netherlands, Singapore, South Africa, Spain, Switzerland, the United Kingdom, and the United States. By entering your phone number and clicking the sign-up button, you agree to receive periodic text messages from MarketBeat at the phone number you submitted, including texts that may be sent using an automatic telephone dialing system. Message and data rates may apply. Message frequency will vary. Messages will consist of stock alerts, news stories, and partner advertisements/offers. Consent is not a condition of the purchase of any goods or services. Text HELP for help/customer support. Unsubscribe at any time by replying "STOP" to any text message that you receive from MarketBeat or by visiting our mailing preferences page. Read our full terms of service and privacy policy.
Skip Chart & View Institutional Buying and Selling Data

IDMO Institutional Buying and Selling by Quarter

Invesco S&P International Developed Momentum ETF Major Shareholders & Ownership History

Reporting DateMajor Shareholder NameShares HeldMarket Value% of PortfolioQuarterly Change in SharesOwnership in CompanyDetails
9/2/2026 Kinetic Wealth Investment Advisors LLC41,089$2.48M1.2%N/A0.061%
9/2/2026 Citadel Advisors LLC91,400$5.51M0.0%-41.1%0.136%
8/27/2026 Corient Private Wealth LP8,380$505K0.0%N/A0.012%
8/26/2026 Affinity Wealth LLC341,315$20.58M11.1%+6.0%0.506%
8/23/2026 PCG Wealth Advisors LLC62,617$3.78M0.8%-6.1%0.093%
8/23/2026 Kraematon Investment Advisors Inc.62,634$3.78M2.8%+2.8%0.093%
8/22/2026 Tenet Wealth Partners LLC17,183$1.03M0.8%N/A0.025%
8/22/2026 TD Waterhouse Canada Inc.8,073$483K0.0%+113.9%0.012%
8/21/2026 Continuum Advisory LLC38,405$2.32M0.2%+70.5%0.057%
8/21/2026 Secure Asset Management LLC29,856$1.80M0.3%-4.5%0.044%
8/21/2026 Triumph Capital Management15,183$915K0.2%-7.0%0.023%
7/10/2026 Annex Advisory Services LLC41,015$2.47M0.0%+3.8%0.063%
7/10/2026 Insight Wealth Strategies LLC385,732$23.10M2.2%+4.7%0.588%
7/10/2026 Redhawk Wealth Advisors Inc.10,477$632K0.1%+15.2%0.016%
7/9/2026 Key Client Fiduciary Advisors LLC16,193$976K0.3%-2.5%0.025%
7/9/2026 CPA Asset Management Group LLC176,931$10.67M3.1%+251.6%0.270%
7/9/2026 Professional Financial Advisors LLC68,552$4.13M0.7%+4.4%0.105%
7/9/2026 IFC & Insurance Marketing Inc.151,715$9.15M8.1%+8.2%0.231%
7/9/2026 StoneCrest Wealth Management Inc.224,418$13.53M4.3%-0.5%0.342%
7/9/2026 Whitaker Myers Wealth Managers LTD.432,402$26.07M4.4%+8.7%0.659%
7/9/2026 Adamsbrown Wealth Consultants LLC624,654$37.66M7.1%+5.1%0.952%
7/9/2026 Hennion & Walsh Asset Management Inc.124,712$7.52M0.2%N/A0.190%
7/9/2026 West Financial Advisors LLC2,414$146K0.0%N/A0.004%
7/8/2026 Foresight Capital Management Advisors Inc.99,639$6.00M2.9%+2.5%0.152%
7/8/2026 Meriwether Wealth & Planning LLC46,140$2.78M1.4%+17.4%0.070%
7/8/2026 Westmount Partners LLC40,000$2.41M0.5%N/A0.061%
7/7/2026 Fermata Advisors LLC6,393$385K0.1%N/A0.010%
7/7/2026 CoreCap Advisors LLC6,687$403K0.0%-12.4%0.010%
7/6/2026 RDA Financial Network60,213$3.63M0.8%+6.1%0.092%
7/6/2026 Dogwood Wealth Management LLC160,272$9.66M3.8%+9.7%0.246%
6/18/2026 Western Wealth Management LLC13,050$716K0.0%-88.0%0.022%
6/16/2026 Steelhead Wealth Management LLC19,980$1.10M0.6%N/A0.033%
5/21/2026 Kensington Asset Management LLC11,171$613K0.0%N/A0.019%
5/19/2026 Western Wealth Management LLC13,050$716K0.0%-88.0%0.022%
5/19/2026McIlrath & Eck LLC455,519$24.98M1.9%+3.1%0.755%
5/19/2026 Bank of America Corp DE535,605$29.37M0.0%+495.9%0.887%
5/19/2026 Centaurus Financial Inc.186,512$10.23M0.5%+47.8%0.309%
5/18/2026 EverSource Wealth Advisors LLC22,519$1.24M0.0%N/A0.037%
5/18/2026 Royal Bank of Canada48,090$2.64M0.0%+22.8%0.080%
5/16/2026 Quantinno Capital Management LP12,706$697K0.0%+49.6%0.021%
My top 3 AI picks for the next decade (Ad)

Alexander Green bought Apple in 1996, recommended Nvidia at a split-adjusted 66 cents in 2004, and picked up Amazon and Netflix under $3 per share in 2005. Now the chief investment strategist at The Oxford Club has identified three AI stocks he believes could be the most profitable investments of the next decade.tc pixel

Click here to get all three AI stock names from Alexander Green
5/15/2026 Waverly Advisors LLC1,293$71K0.0%N/A0.002%
5/14/2026 Modern Wealth Management LLC248,014$13.98M0.2%+10.3%0.411%
5/14/2026 Greenline Wealth Management LLC70,387$3.86M4.5%+24.2%0.117%
5/13/2026 Cetera Investment Advisers2,098,429$115.08M0.1%+33.2%3.477%
5/13/2026 Envision Financial Transparency LLC29,795$1.63M1.6%N/A0.049%
5/13/2026 Daner Wealth Management LLC13,862$837K0.4%+8.4%0.023%
5/8/2026 PNC Financial Services Group Inc.1,577$86K0.0%N/A0.003%
5/7/2026 Florida Financial Advisors LLC7,752$425K0.1%+28.2%0.013%
5/7/2026 Planning Alternatives Ltd. ADV482,978$26.49M3.4%N/A0.800%
5/6/2026 Bessemer Group Inc.1,010$55K0.0%+90.6%0.002%
5/6/2026 Independent Financial Group LLC57,057$3.13M0.1%N/A0.095%
5/6/2026 CPA Asset Management Group LLC50,316$2.76M0.9%+396.8%0.083%
5/5/2026 Geneos Wealth Management Inc.9,050$496K0.0%+136.3%0.015%
5/5/2026 Sanctuary Advisors LLC44,362$2.43M0.0%-20.5%0.074%
5/5/2026 Sigma Planning Corp92,437$5.07M0.1%+5.5%0.153%
5/4/2026 HBW Advisory Services LLC46,234$2.54M0.3%+1,004.2%0.077%
5/4/2026 Gratus Wealth Advisors LLC456,816$25.05M3.6%N/A0.757%
5/1/2026 Avid Wealth Partners LLC178,938$9.81M4.6%+14.4%0.297%
5/1/2026 Walled Lake Planning & Wealth Management LLC9,830$539K0.2%-8.7%0.016%
5/1/2026 Arbor Capital Management Inc. ADV16,030$952K0.8%+9.4%0.027%
5/1/2026 Paladin Advisory Group LLC76,339$4.19M3.2%+40.8%0.126%
4/30/2026 Pearl Planning LLC16,808$922K0.5%+5.6%0.028%
4/30/2026 Stronghold Wealth Management L.L.C.4,850$266K0.4%+32.6%0.008%
4/30/2026 Kestra Advisory Services LLC309,628$16.98M0.1%+44.3%0.513%
4/30/2026 WPG Advisers LLC48,153$2.64M1.9%+102.5%0.080%
4/29/2026 Signet Private Wealth LLC6,676$366K0.3%+6.2%0.011%
4/29/2026 Integrated Advisors Network LLC4,875$267K0.0%N/A0.008%
4/28/2026 Whittier Trust Co. of Nevada Inc.1,225$69K0.0%N/A0.002%
4/28/2026 Ascentis Independent Advisors53,807$2.95M0.2%N/A0.090%
4/28/2026 Berger Financial Group Inc9,848$540K0.0%+12.3%0.016%
4/28/2026 Astoria Portfolio Advisors LLC.10,358$605K0.1%+171.1%0.017%
4/27/2026 USAdvisors Wealth Management LLC89,231$4.72M1.6%+47.5%0.148%
4/27/2026 Private Advisor Group LLC311,265$17.07M0.1%+12.1%0.518%
4/27/2026 Trademark Financial Management LLC136,432$7.48M3.7%+13.8%0.227%
4/27/2026 Three Cord True Wealth Management LLC290,011$15.90M8.8%+6.5%0.483%
4/25/2026 Able Wealth Management LLC101,568$5.57M1.5%-46.2%0.169%
4/24/2026 Essex Financial Services Inc.17,363$952K0.1%+29.5%0.029%
4/24/2026 Partners Wealth Management LLC4,424$243K0.3%N/A0.007%
4/23/2026 Manchester Financial Inc.456,012$25.01M4.8%+0.6%0.759%
4/23/2026 Next Level Private LLC15,734$863K0.2%N/A0.026%
4/23/2026 Continuum Advisory LLC22,519$1.24M0.1%+199.3%0.037%
4/23/2026 Apollon Wealth Management LLC28,258$1.55M0.0%+8.5%0.047%
4/22/2026 Janney Montgomery Scott LLC211,304$11.59M0.0%+67.7%0.352%
4/22/2026 Harbor Asset Planning Inc.749$41K0.0%N/A0.001%
4/22/2026 Welch Financial Planning LLC106,162$5.82M4.2%+21.4%0.178%
4/22/2026 Systelligence LLC165,135$9.06M1.8%-18.3%0.276%
4/22/2026 Rooted Wealth Advisors Inc.379,170$22.63M5.7%+12.6%0.634%
4/22/2026 Meridian Financial Advisors LLC10,592$581K0.3%+75.1%0.018%
4/22/2026 Riverstone Advisors LLC50,583$2.77M1.4%+97.1%0.085%
4/21/2026 Maridea Wealth Management LLC5,588$306K0.0%+49.8%0.009%
The REAL Reason Trump is Invading Iran (Ad)

For a moment… Forget about Trump’s ties to Israel. Forget about reports of Iran’s nuclear program. Because my research has led me to believe we’re risking World War 3 with Iran for a completely different reason.tc pixel

Click here to find out what it is.
4/21/2026 Independent Wealth Network Inc.5,363$294K0.1%N/A0.009%
4/21/2026 Urban Wealth Management LLC81,751$4.48M4.6%+0.3%0.137%
4/21/2026 Fiduciary Alliance LLC7,496$447K0.0%+31.5%0.013%
4/20/2026 RFG Advisory LLC570,425$31.28M0.6%+2.3%0.954%
4/18/2026 Faithward Advisors LLC52,130$2.86M0.4%+5.8%0.087%
4/17/2026 Total Clarity Wealth Management Inc.5,235$287K0.1%-9.5%0.009%
4/17/2026 IFC & Insurance Marketing Inc.140,228$7.69M8.0%N/A0.234%
4/17/2026 Brookstone Capital Management232,809$12.77M0.1%+142.9%0.389%
3/13/2026 World Investment Advisors9,743$541K0.0%+10.3%0.019%
3/9/2026 Corient Private Wealth LLC9,239$513K0.0%N/A0.018%


IDMO Institutional Ownership - Frequently Asked Questions

During the previous two years, 244 institutional investors and hedge funds held shares of Invesco S&P International Developed Momentum ETF. The most heavily invested institutionals were LPL Financial LLC ($252.82M), Cetera Investment Advisers ($115.08M), Northwestern Mutual Wealth Management Co. ($109.65M), Great Valley Advisor Group Inc. ($72.94M), SHP Wealth Management ($47.93M), Adamsbrown Wealth Consultants LLC ($37.66M), and Charles Schwab Investment Management Inc. ($36.79M).Learn more on Invesco S&P International Developed Momentum ETF's institutional investors.

Of the 240 institutional investors that purchased Invesco S&P International Developed Momentum ETF's stock in the last 24 months, the following investors and hedge funds have bought the highest volume of shares: Northwestern Mutual Wealth Management Co. ($1.97M), Cetera Investment Advisers ($1.32M), LPL Financial LLC ($1.14M), Jane Street Group LLC ($959.87K), SHP Wealth Management ($862.44K), Great Valley Advisor Group Inc. ($768.22K), and Raymond James Financial Inc. ($609.34K).

Institutional investors have bought a total of 19,339,694 shares in the last 24 months. This purchase volume represents approximately $1.06B in transactions.

Of the 34 institutional investors that sold Invesco S&P International Developed Momentum ETF's stock in the last 24 months, the following investors and hedge funds have sold the highest volume of shares: Northwestern Mutual Wealth Management Co. ($1.02M), Western Wealth Management LLC ($191.07K), Able Wealth Management LLC ($87.09K), Systelligence LLC ($83.59K), Citadel Advisors LLC ($63.70K), Mariner LLC ($38.07K), and Clear Creek Financial Management LLC ($26.71K).

Institutional investors have sold a total of 1,615,716 shares in the last 24 months. This volume of shares sold represents approximately $89.78M in transactions.



Institutional ownership data for NYSEARCA:IDMO is compiled from quarterly 13F filings submitted to the U.S. Securities and Exchange Commission (SEC), with the most recent received on 9/2/2026. New 13F filings are added each quarter as they're published.
From Our Partners